sensor_id;sensor_type;location;lat;lon;timestamp;pressure;altitude;pressure_sealevel;temperature;humidity
74370;BME280;71062;44.520;11.342;2023-11-21T00:02:20;100630.09;;;9.83;100.00
74370;BME280;71062;44.520;11.342;2023-11-21T00:04:47;100623.38;;;9.99;100.00
74370;BME280;71062;44.520;11.342;2023-11-21T00:07:13;100627.34;;;10.08;100.00
74370;BME280;71062;44.520;11.342;2023-11-21T00:09:38;100615.81;;;10.15;99.25
74370;BME280;71062;44.520;11.342;2023-11-21T00:12:04;100620.63;;;10.15;99.17
74370;BME280;71062;44.520;11.342;2023-11-21T00:14:31;100604.28;;;9.91;100.00
74370;BME280;71062;44.520;11.342;2023-11-21T00:16:56;100611.91;;;10.16;99.07
74370;BME280;71062;44.520;11.342;2023-11-21T00:19:23;100617.78;;;10.09;98.96
74370;BME280;71062;44.520;11.342;2023-11-21T00:21:48;100607.09;;;10.06;98.95
74370;BME280;71062;44.520;11.342;2023-11-21T00:24:14;100606.25;;;10.06;99.24
74370;BME280;71062;44.520;11.342;2023-11-21T00:26:40;100598.94;;;9.85;100.00
74370;BME280;71062;44.520;11.342;2023-11-21T00:29:06;100597.53;;;9.97;99.66
74370;BME280;71062;44.520;11.342;2023-11-21T00:31:34;100603.19;;;10.07;99.07
74370;BME280;71062;44.520;11.342;2023-11-21T00:33:59;100605.13;;;9.97;100.00
74370;BME280;71062;44.520;11.342;2023-11-21T00:36:25;100615.81;;;10.20;99.72
74370;BME280;71062;44.520;11.342;2023-11-21T00:38:51;100626.75;;;10.01;100.00
74370;BME280;71062;44.520;11.342;2023-11-21T00:41:20;100623.41;;;10.09;100.00
74370;BME280;71062;44.520;11.342;2023-11-21T00:43:45;100622.00;;;10.32;99.62
74370;BME280;71062;44.520;11.342;2023-11-21T00:46:11;100613.84;;;10.46;97.93
74370;BME280;71062;44.520;11.342;2023-11-21T00:48:36;100600.94;;;10.30;98.45
74370;BME280;71062;44.520;11.342;2023-11-21T00:51:02;100598.09;;;10.45;98.24
74370;BME280;71062;44.520;11.342;2023-11-21T00:53:28;100602.34;;;10.22;99.19
74370;BME280;71062;44.520;11.342;2023-11-21T00:55:53;100588.88;;;10.19;100.00
74370;BME280;71062;44.520;11.342;2023-11-21T00:58:25;100587.47;;;10.22;100.00
74370;BME280;71062;44.520;11.342;2023-11-21T01:00:50;100580.16;;;10.26;99.51
74370;BME280;71062;44.520;11.342;2023-11-21T01:03:16;100571.44;;;10.37;98.51
74370;BME280;71062;44.520;11.342;2023-11-21T01:05:42;100569.47;;;10.28;98.85
74370;BME280;71062;44.520;11.342;2023-11-21T01:08:07;100564.41;;;10.35;99.10
74370;BME280;71062;44.520;11.342;2023-11-21T01:10:33;100566.09;;;10.41;99.54
74370;BME280;71062;44.520;11.342;2023-11-21T01:12:59;100561.59;;;10.40;100.00
74370;BME280;71062;44.520;11.342;2023-11-21T01:15:25;100549.84;;;10.23;100.00
74370;BME280;71062;44.520;11.342;2023-11-21T01:17:51;100549.81;;;10.33;100.00
74370;BME280;71062;44.520;11.342;2023-11-21T01:20:17;100549.22;;;10.46;100.00
74370;BME280;71062;44.520;11.342;2023-11-21T01:22:43;100527.59;;;10.36;100.00
74370;BME280;71062;44.520;11.342;2023-11-21T01:25:10;100526.75;;;10.36;99.63
74370;BME280;71062;44.520;11.342;2023-11-21T01:27:36;100505.69;;;10.43;100.00
74370;BME280;71062;44.520;11.342;2023-11-21T01:30:06;100498.59;;;10.61;99.22
74370;BME280;71062;44.520;11.342;2023-11-21T01:32:33;100479.50;;;10.58;98.71
74370;BME280;71062;44.520;11.342;2023-11-21T01:34:59;100485.06;;;10.68;99.25
74370;BME280;71062;44.520;11.342;2023-11-21T01:37:25;100474.72;;;10.58;99.93
74370;BME280;71062;44.520;11.342;2023-11-21T01:39:55;100473.88;;;10.58;99.86
74370;BME280;71062;44.520;11.342;2023-11-21T01:42:21;100470.47;;;10.66;99.33
74370;BME280;71062;44.520;11.342;2023-11-21T01:44:47;100466.00;;;10.60;99.37
74370;BME280;71062;44.520;11.342;2023-11-21T01:47:14;100464.91;;;10.56;99.46
74370;BME280;71062;44.520;11.342;2023-11-21T01:49:44;100462.06;;;10.61;100.00
74370;BME280;71062;44.520;11.342;2023-11-21T01:52:11;100465.22;;;10.49;100.00
74370;BME280;71062;44.520;11.342;2023-11-21T01:54:37;100468.84;;;10.55;100.00
74370;BME280;71062;44.520;11.342;2023-11-21T01:57:04;100469.63;;;10.60;100.00
74370;BME280;71062;44.520;11.342;2023-11-21T01:59:35;100455.31;;;10.62;100.00
74370;BME280;71062;44.520;11.342;2023-11-21T02:02:06;100455.31;;;10.57;100.00
74370;BME280;71062;44.520;11.342;2023-11-21T02:04:32;100472.22;;;10.52;100.00
74370;BME280;71062;44.520;11.342;2023-11-21T02:06:58;100484.31;;;10.47;100.00
74370;BME280;71062;44.520;11.342;2023-11-21T02:09:33;100491.31;;;10.50;100.00
74370;BME280;71062;44.520;11.342;2023-11-21T02:12:00;100495.88;;;10.41;100.00
74370;BME280;71062;44.520;11.342;2023-11-21T02:14:29;100488.59;;;10.30;100.00
74370;BME280;71062;44.520;11.342;2023-11-21T02:16:56;100508.25;;;10.25;100.00
74370;BME280;71062;44.520;11.342;2023-11-21T02:19:26;100532.44;;;10.16;100.00
74370;BME280;71062;44.520;11.342;2023-11-21T02:21:52;100516.69;;;10.20;100.00
74370;BME280;71062;44.520;11.342;2023-11-21T02:24:22;100509.09;;;10.05;100.00
74370;BME280;71062;44.520;11.342;2023-11-21T02:26:49;100507.72;;;9.77;100.00
74370;BME280;71062;44.520;11.342;2023-11-21T02:29:20;100527.91;;;9.64;100.00
74370;BME280;71062;44.520;11.342;2023-11-21T02:31:49;100525.97;;;9.65;100.00
74370;BME280;71062;44.520;11.342;2023-11-21T02:34:15;100510.22;;;9.59;100.00
74370;BME280;71062;44.520;11.342;2023-11-21T02:36:41;100499.84;;;9.59;100.00
74370;BME280;71062;44.520;11.342;2023-11-21T02:39:08;100503.25;;;9.51;100.00
74370;BME280;71062;44.520;11.342;2023-11-21T02:41:34;100518.66;;;9.54;100.00
74370;BME280;71062;44.520;11.342;2023-11-21T02:44:00;100513.31;;;9.47;100.00
74370;BME280;71062;44.520;11.342;2023-11-21T02:46:26;100505.19;;;9.36;100.00
74370;BME280;71062;44.520;11.342;2023-11-21T02:48:52;100509.38;;;9.28;100.00
74370;BME280;71062;44.520;11.342;2023-11-21T02:51:21;100507.13;;;9.20;100.00
74370;BME280;71062;44.520;11.342;2023-11-21T02:53:47;100504.28;;;9.15;100.00
74370;BME280;71062;44.520;11.342;2023-11-21T02:56:13;100502.06;;;9.17;100.00
74370;BME280;71062;44.520;11.342;2023-11-21T02:58:42;100493.41;;;9.29;100.00
74370;BME280;71062;44.520;11.342;2023-11-21T03:01:10;100496.50;;;9.47;100.00
74370;BME280;71062;44.520;11.342;2023-11-21T03:03:37;100503.78;;;9.48;100.00
74370;BME280;71062;44.520;11.342;2023-11-21T03:06:06;100482.75;;;9.46;100.00
74370;BME280;71062;44.520;11.342;2023-11-21T03:08:32;100476.28;;;9.45;100.00
74370;BME280;71062;44.520;11.342;2023-11-21T03:10:58;100463.38;;;9.54;100.00
74370;BME280;71062;44.520;11.342;2023-11-21T03:13:24;100453.03;;;9.55;100.00
74370;BME280;71062;44.520;11.342;2023-11-21T03:15:50;100452.16;;;9.59;100.00
74370;BME280;71062;44.520;11.342;2023-11-21T03:18:16;100453.56;;;9.72;100.00
74370;BME280;71062;44.520;11.342;2023-11-21T03:20:43;100449.34;;;9.69;100.00
74370;BME280;71062;44.520;11.342;2023-11-21T03:23:12;100452.41;;;9.78;100.00
74370;BME280;71062;44.520;11.342;2023-11-21T03:25:38;100455.50;;;9.76;100.00
74370;BME280;71062;44.520;11.342;2023-11-21T03:28:03;100447.31;;;10.20;100.00
74370;BME280;71062;44.520;11.342;2023-11-21T03:30:29;100453.22;;;10.19;100.00
74370;BME280;71062;44.520;11.342;2023-11-21T03:32:55;100448.75;;;9.92;100.00
74370;BME280;71062;44.520;11.342;2023-11-21T03:35:22;100461.13;;;9.91;100.00
74370;BME280;71062;44.520;11.342;2023-11-21T03:37:47;100468.38;;;9.97;100.00
74370;BME280;71062;44.520;11.342;2023-11-21T03:40:13;100479.63;;;10.18;100.00
74370;BME280;71062;44.520;11.342;2023-11-21T03:42:39;100471.75;;;9.99;100.00
74370;BME280;71062;44.520;11.342;2023-11-21T03:45:06;100457.72;;;10.09;100.00
74370;BME280;71062;44.520;11.342;2023-11-21T03:47:32;100474.00;;;10.07;100.00
74370;BME280;71062;44.520;11.342;2023-11-21T03:49:57;100474.59;;;9.84;100.00
74370;BME280;71062;44.520;11.342;2023-11-21T03:52:24;100472.34;;;9.81;100.00
74370;BME280;71062;44.520;11.342;2023-11-21T03:54:50;100483.31;;;9.83;100.00
74370;BME280;71062;44.520;11.342;2023-11-21T03:57:15;100482.47;;;9.82;100.00
74370;BME280;71062;44.520;11.342;2023-11-21T03:59:42;100474.03;;;9.82;100.00
74370;BME280;71062;44.520;11.342;2023-11-21T04:02:08;100470.09;;;9.98;100.00
74370;BME280;71062;44.520;11.342;2023-11-21T04:04:37;100481.91;;;10.10;100.00
74370;BME280;71062;44.520;11.342;2023-11-21T04:07:03;100479.63;;;9.97;100.00
74370;BME280;71062;44.520;11.342;2023-11-21T04:09:29;100473.44;;;10.05;100.00
74370;BME280;71062;44.520;11.342;2023-11-21T04:11:54;100455.78;;;10.10;100.00
74370;BME280;71062;44.520;11.342;2023-11-21T04:14:21;100463.06;;;10.21;100.00
74370;BME280;71062;44.520;11.342;2023-11-21T04:16:46;100460.53;;;9.99;100.00
74370;BME280;71062;44.520;11.342;2023-11-21T04:19:12;100450.16;;;9.80;100.00
74370;BME280;71062;44.520;11.342;2023-11-21T04:21:41;100443.09;;;10.02;100.00
74370;BME280;71062;44.520;11.342;2023-11-21T04:24:07;100457.72;;;10.04;100.00
74370;BME280;71062;44.520;11.342;2023-11-21T04:26:33;100460.53;;;10.09;100.00
74370;BME280;71062;44.520;11.342;2023-11-21T04:28:59;100453.78;;;10.21;100.00
74370;BME280;71062;44.520;11.342;2023-11-21T04:31:24;100462.50;;;10.14;100.00
74370;BME280;71062;44.520;11.342;2023-11-21T04:33:50;100479.63;;;10.18;100.00
74370;BME280;71062;44.520;11.342;2023-11-21T04:36:16;100481.31;;;10.19;100.00
74370;BME280;71062;44.520;11.342;2023-11-21T04:38:41;100471.75;;;10.20;100.00
74370;BME280;71062;44.520;11.342;2023-11-21T04:41:07;100470.38;;;10.12;100.00
74370;BME280;71062;44.520;11.342;2023-11-21T04:43:33;100466.72;;;10.11;100.00
74370;BME280;71062;44.520;11.342;2023-11-21T04:45:59;100464.44;;;10.19;100.00
74370;BME280;71062;44.520;11.342;2023-11-21T04:48:25;100458.28;;;10.22;100.00
74370;BME280;71062;44.520;11.342;2023-11-21T04:50:51;100435.81;;;10.22;100.00
74370;BME280;71062;44.520;11.342;2023-11-21T04:53:17;100417.88;;;9.92;100.00
74370;BME280;71062;44.520;11.342;2023-11-21T04:55:43;100412.81;;;9.94;100.00
74370;BME280;71062;44.520;11.342;2023-11-21T04:58:09;100435.56;;;9.78;100.00
74370;BME280;71062;44.520;11.342;2023-11-21T05:00:36;100433.06;;;9.76;100.00
74370;BME280;71062;44.520;11.342;2023-11-21T05:03:02;100416.78;;;9.78;100.00
74370;BME280;71062;44.520;11.342;2023-11-21T05:05:29;100421.75;;;10.27;100.00
74370;BME280;71062;44.520;11.342;2023-11-21T05:07:59;100429.00;;;10.33;100.00
74370;BME280;71062;44.520;11.342;2023-11-21T05:10:25;100441.44;;;10.11;100.00
74370;BME280;71062;44.520;11.342;2023-11-21T05:12:50;100422.38;;;9.88;100.00
74370;BME280;71062;44.520;11.342;2023-11-21T05:15:16;100425.16;;;10.08;100.00
74370;BME280;71062;44.520;11.342;2023-11-21T05:17:43;100436.09;;;10.25;100.00
74370;BME280;71062;44.520;11.342;2023-11-21T05:20:11;100424.28;;;10.28;100.00
74370;BME280;71062;44.520;11.342;2023-11-21T05:22:37;100427.38;;;10.17;100.00
74370;BME280;71062;44.520;11.342;2023-11-21T05:25:04;100426.84;;;10.09;100.00
74370;BME280;71062;44.520;11.342;2023-11-21T05:27:30;100428.72;;;10.44;100.00
74370;BME280;71062;44.520;11.342;2023-11-21T05:29:56;100431.22;;;10.46;100.00
74370;BME280;71062;44.520;11.342;2023-11-21T05:32:24;100411.09;;;10.13;100.00
74370;BME280;71062;44.520;11.342;2023-11-21T05:34:50;100425.41;;;10.22;100.00
74370;BME280;71062;44.520;11.342;2023-11-21T05:37:15;100435.19;;;10.35;100.00
74370;BME280;71062;44.520;11.342;2023-11-21T05:39:43;100434.00;;;10.51;100.00
74370;BME280;71062;44.520;11.342;2023-11-21T05:42:09;100430.97;;;10.32;100.00
74370;BME280;71062;44.520;11.342;2023-11-21T05:44:37;100433.16;;;10.50;100.00
74370;BME280;71062;44.520;11.342;2023-11-21T05:47:02;100438.19;;;10.53;99.52
74370;BME280;71062;44.520;11.342;2023-11-21T05:49:29;100430.09;;;10.42;99.87
74370;BME280;71062;44.520;11.342;2023-11-21T05:51:55;100436.31;;;10.39;99.96
74370;BME280;71062;44.520;11.342;2023-11-21T05:54:21;100422.28;;;10.34;100.00
74370;BME280;71062;44.520;11.342;2023-11-21T05:56:48;100430.16;;;10.32;100.00
74370;BME280;71062;44.520;11.342;2023-11-21T05:59:14;100416.66;;;10.39;99.21
74370;BME280;71062;44.520;11.342;2023-11-21T06:01:40;100421.13;;;10.40;99.46
74370;BME280;71062;44.520;11.342;2023-11-21T06:04:05;100414.41;;;10.31;100.00
74370;BME280;71062;44.520;11.342;2023-11-21T06:06:33;100427.84;;;10.44;99.96
74370;BME280;71062;44.520;11.342;2023-11-21T06:08:58;100426.69;;;10.55;98.80
74370;BME280;71062;44.520;11.342;2023-11-21T06:11:25;100426.16;;;10.43;99.75
74370;BME280;71062;44.520;11.342;2023-11-21T06:13:50;100427.22;;;10.57;100.00
74370;BME280;71062;44.520;11.342;2023-11-21T06:16:16;100431.16;;;10.56;98.80
74370;BME280;71062;44.520;11.342;2023-11-21T06:18:45;100421.59;;;10.57;100.00
74370;BME280;71062;44.520;11.342;2023-11-21T06:21:11;100417.69;;;10.58;100.00
74370;BME280;71062;44.520;11.342;2023-11-21T06:23:36;100420.47;;;10.63;100.00
74370;BME280;71062;44.520;11.342;2023-11-21T06:26:03;100420.53;;;10.53;100.00
74370;BME280;71062;44.520;11.342;2023-11-21T06:28:29;100420.00;;;10.36;100.00
74370;BME280;71062;44.520;11.342;2023-11-21T06:30:56;100407.09;;;10.35;100.00
74370;BME280;71062;44.520;11.342;2023-11-21T06:33:23;100415.38;;;10.70;100.00
74370;BME280;71062;44.520;11.342;2023-11-21T06:35:52;100400.31;;;10.46;100.00
74370;BME280;71062;44.520;11.342;2023-11-21T06:38:18;100400.09;;;10.37;100.00
74370;BME280;71062;44.520;11.342;2023-11-21T06:40:45;100389.19;;;10.21;100.00
74370;BME280;71062;44.520;11.342;2023-11-21T06:43:11;100392.53;;;10.23;100.00
74370;BME280;71062;44.520;11.342;2023-11-21T06:45:37;100388.66;;;10.13;100.00
74370;BME280;71062;44.520;11.342;2023-11-21T06:48:02;100402.06;;;10.32;100.00
74370;BME280;71062;44.520;11.342;2023-11-21T06:50:31;100423.88;;;10.55;100.00
74370;BME280;71062;44.520;11.342;2023-11-21T06:52:59;100427.00;;;10.43;100.00
74370;BME280;71062;44.520;11.342;2023-11-21T06:55:28;100427.06;;;10.33;100.00
74370;BME280;71062;44.520;11.342;2023-11-21T06:57:53;100428.22;;;10.17;100.00
74370;BME280;71062;44.520;11.342;2023-11-21T07:00:19;100438.03;;;10.30;100.00
74370;BME280;71062;44.520;11.342;2023-11-21T07:02:45;100423.47;;;10.18;100.00
74370;BME280;71062;44.520;11.342;2023-11-21T07:05:11;100430.75;;;10.19;100.00
74370;BME280;71062;44.520;11.342;2023-11-21T07:07:36;100442.53;;;10.26;100.00
74370;BME280;71062;44.520;11.342;2023-11-21T07:10:03;100443.03;;;10.48;100.00
74370;BME280;71062;44.520;11.342;2023-11-21T07:12:31;100452.50;;;10.57;100.00
74370;BME280;71062;44.520;11.342;2023-11-21T07:14:58;100442.47;;;10.46;100.00
74370;BME280;71062;44.520;11.342;2023-11-21T07:17:23;100451.78;;;10.31;100.00
74370;BME280;71062;44.520;11.342;2023-11-21T07:19:49;100441.69;;;10.25;100.00
74370;BME280;71062;44.520;11.342;2023-11-21T07:22:15;100425.09;;;10.24;100.00
74370;BME280;71062;44.520;11.342;2023-11-21T07:24:49;100439.16;;;10.34;100.00
74370;BME280;71062;44.520;11.342;2023-11-21T07:27:17;100447.97;;;10.66;100.00
74370;BME280;71062;44.520;11.342;2023-11-21T07:29:44;100440.16;;;10.58;100.00
74370;BME280;71062;44.520;11.342;2023-11-21T07:32:09;100440.22;;;10.48;100.00
74370;BME280;71062;44.520;11.342;2023-11-21T07:34:36;100434.59;;;10.38;100.00
74370;BME280;71062;44.520;11.342;2023-11-21T07:37:02;100436.25;;;10.49;100.00
74370;BME280;71062;44.520;11.342;2023-11-21T07:39:28;100432.03;;;10.56;100.00
74370;BME280;71062;44.520;11.342;2023-11-21T07:41:53;100437.16;;;10.93;100.00
74370;BME280;71062;44.520;11.342;2023-11-21T07:44:19;100430.41;;;10.94;100.00
74370;BME280;71062;44.520;11.342;2023-11-21T07:46:45;100420.13;;;10.69;100.00
74370;BME280;71062;44.520;11.342;2023-11-21T07:49:12;100424.88;;;10.79;100.00
74370;BME280;71062;44.520;11.342;2023-11-21T07:51:46;100430.75;;;10.82;100.00
74370;BME280;71062;44.520;11.342;2023-11-21T07:54:11;100440.09;;;10.68;100.00
74370;BME280;71062;44.520;11.342;2023-11-21T07:56:37;100435.47;;;10.38;100.00
74370;BME280;71062;44.520;11.342;2023-11-21T07:59:03;100425.97;;;10.24;100.00
74370;BME280;71062;44.520;11.342;2023-11-21T08:01:30;100426.84;;;10.09;100.00
74370;BME280;71062;44.520;11.342;2023-11-21T08:03:55;100426.84;;;9.94;100.00
74370;BME280;71062;44.520;11.342;2023-11-21T08:06:26;100429.13;;;9.82;100.00
74370;BME280;71062;44.520;11.342;2023-11-21T08:08:52;100423.81;;;9.81;100.00
74370;BME280;71062;44.520;11.342;2023-11-21T08:11:18;100446.53;;;9.84;100.00
74370;BME280;71062;44.520;11.342;2023-11-21T08:13:44;100406.16;;;9.50;100.00
74370;BME280;71062;44.520;11.342;2023-11-21T08:16:11;100445.66;;;9.89;100.00
74370;BME280;71062;44.520;11.342;2023-11-21T08:18:37;100424.34;;;9.78;100.00
74370;BME280;71062;44.520;11.342;2023-11-21T08:21:03;100440.38;;;9.77;100.00
74370;BME280;71062;44.520;11.342;2023-11-21T08:23:30;100441.19;;;9.78;100.00
74370;BME280;71062;44.520;11.342;2023-11-21T08:25:55;100452.16;;;9.74;100.00
74370;BME280;71062;44.520;11.342;2023-11-21T08:28:21;100449.34;;;9.69;100.00
74370;BME280;71062;44.520;11.342;2023-11-21T08:30:53;100443.19;;;9.77;100.00
74370;BME280;71062;44.520;11.342;2023-11-21T08:33:22;100440.66;;;9.81;100.00
74370;BME280;71062;44.520;11.342;2023-11-21T08:35:48;100430.25;;;9.81;100.00
74370;BME280;71062;44.520;11.342;2023-11-21T08:38:14;100432.50;;;9.84;100.00
74370;BME280;71062;44.520;11.342;2023-11-21T08:40:39;100438.13;;;9.84;100.00
74370;BME280;71062;44.520;11.342;2023-11-21T08:43:05;100439.22;;;10.08;100.00
74370;BME280;71062;44.520;11.342;2023-11-21T08:45:31;100431.88;;;10.02;100.00
74370;BME280;71062;44.520;11.342;2023-11-21T08:47:57;100434.72;;;9.92;100.00
74370;BME280;71062;44.520;11.342;2023-11-21T08:50:23;100417.03;;;9.87;100.00
74370;BME280;71062;44.520;11.342;2023-11-21T08:52:48;100444.28;;;9.86;100.00
74370;BME280;71062;44.520;11.342;2023-11-21T08:55:14;100429.16;;;9.72;100.00
74370;BME280;71062;44.520;11.342;2023-11-21T08:57:40;100439.22;;;9.83;100.00
74370;BME280;71062;44.520;11.342;2023-11-21T09:00:10;100443.16;;;9.82;100.00
74370;BME280;71062;44.520;11.342;2023-11-21T09:02:39;100437.56;;;9.82;100.00
74370;BME280;71062;44.520;11.342;2023-11-21T09:05:08;100422.13;;;9.65;100.00
74370;BME280;71062;44.520;11.342;2023-11-21T09:07:35;100445.41;;;9.80;100.00
74370;BME280;71062;44.520;11.342;2023-11-21T09:10:01;100446.53;;;9.79;100.00
74370;BME280;71062;44.520;11.342;2023-11-21T09:12:27;100431.63;;;9.89;100.00
74370;BME280;71062;44.520;11.342;2023-11-21T09:14:52;100412.81;;;9.94;100.00
74370;BME280;71062;44.520;11.342;2023-11-21T09:17:18;100427.38;;;10.06;100.00
74370;BME280;71062;44.520;11.342;2023-11-21T09:19:44;100429.03;;;10.28;100.00
74370;BME280;71062;44.520;11.342;2023-11-21T09:22:12;100413.88;;;10.29;100.00
74370;BME280;71062;44.520;11.342;2023-11-21T09:24:38;100412.19;;;10.28;100.00
74370;BME280;71062;44.520;11.342;2023-11-21T09:27:03;100437.41;;;10.43;100.00
74370;BME280;71062;44.520;11.342;2023-11-21T09:29:30;100434.66;;;10.28;100.00
74370;BME280;71062;44.520;11.342;2023-11-21T09:31:57;100433.00;;;10.17;100.00
74370;BME280;71062;44.520;11.342;2023-11-21T09:34:25;100424.59;;;10.11;100.00
74370;BME280;71062;44.520;11.342;2023-11-21T09:36:51;100441.13;;;10.08;100.00
74370;BME280;71062;44.520;11.342;2023-11-21T09:39:17;100434.13;;;10.21;100.00
74370;BME280;71062;44.520;11.342;2023-11-21T09:41:48;100442.47;;;10.36;100.00
74370;BME280;71062;44.520;11.342;2023-11-21T09:44:18;100446.19;;;10.21;100.00
74370;BME280;71062;44.520;11.342;2023-11-21T09:46:47;100449.31;;;10.09;100.00
74370;BME280;71062;44.520;11.342;2023-11-21T09:49:22;100430.25;;;9.91;100.00
74370;BME280;71062;44.520;11.342;2023-11-21T09:51:54;100443.41;;;9.96;100.00
74370;BME280;71062;44.520;11.342;2023-11-21T09:54:25;100438.94;;;9.90;100.00
74370;BME280;71062;44.520;11.342;2023-11-21T09:56:52;100433.59;;;10.08;100.00
74370;BME280;71062;44.520;11.342;2023-11-21T09:59:17;100440.03;;;10.14;100.00
74370;BME280;71062;44.520;11.342;2023-11-21T10:01:44;100448.75;;;10.13;100.00
74370;BME280;71062;44.520;11.342;2023-11-21T10:04:11;100438.06;;;10.09;100.00
74370;BME280;71062;44.520;11.342;2023-11-21T10:06:41;100428.00;;;9.93;100.00
74370;BME280;71062;44.520;11.342;2023-11-21T10:09:14;100426.59;;;9.86;100.00
74370;BME280;71062;44.520;11.342;2023-11-21T10:11:41;100444.84;;;9.83;100.00
74370;BME280;71062;44.520;11.342;2023-11-21T10:14:11;100447.63;;;10.03;100.00
74370;BME280;71062;44.520;11.342;2023-11-21T10:16:41;100445.94;;;10.07;100.00
74370;BME280;71062;44.520;11.342;2023-11-21T10:19:10;100439.78;;;9.90;100.00
74370;BME280;71062;44.520;11.342;2023-11-21T10:21:38;100417.94;;;9.67;100.00
74370;BME280;71062;44.520;11.342;2023-11-21T10:24:04;100437.28;;;9.79;100.00
74370;BME280;71062;44.520;11.342;2023-11-21T10:26:32;100433.31;;;9.95;100.00
74370;BME280;71062;44.520;11.342;2023-11-21T10:28:57;100450.69;;;10.07;100.00
74370;BME280;71062;44.520;11.342;2023-11-21T10:31:23;100460.53;;;9.99;100.00
74370;BME280;71062;44.520;11.342;2023-11-21T10:33:52;100451.00;;;9.90;100.00
74370;BME280;71062;44.520;11.342;2023-11-21T10:36:27;100464.19;;;9.95;100.00
74370;BME280;71062;44.520;11.342;2023-11-21T10:38:53;100465.31;;;9.89;100.00
74370;BME280;71062;44.520;11.342;2023-11-21T10:41:20;100447.09;;;9.71;100.00
74370;BME280;71062;44.520;11.342;2023-11-21T10:43:47;100434.50;;;9.64;100.00
74370;BME280;71062;44.520;11.342;2023-11-21T10:46:14;100429.72;;;9.74;100.00
74370;BME280;71062;44.520;11.342;2023-11-21T10:48:41;100427.16;;;9.73;100.00
74370;BME280;71062;44.520;11.342;2023-11-21T10:51:08;100421.81;;;9.76;100.00
74370;BME280;71062;44.520;11.342;2023-11-21T10:53:38;100417.91;;;9.77;100.00
74370;BME280;71062;44.520;11.342;2023-11-21T10:56:06;100403.91;;;9.72;100.00
74370;BME280;71062;44.520;11.342;2023-11-21T10:58:35;100395.47;;;9.57;100.00
74370;BME280;71062;44.520;11.342;2023-11-21T11:01:02;100392.09;;;9.75;100.00
74370;BME280;71062;44.520;11.342;2023-11-21T11:03:30;100378.63;;;9.62;100.00
74370;BME280;71062;44.520;11.342;2023-11-21T11:06:21;100399.94;;;9.93;100.00
74370;BME280;71062;44.520;11.342;2023-11-21T11:09:18;100347.72;;;9.87;100.00
74370;BME280;71062;44.520;11.342;2023-11-21T11:12:45;100398.75;;;10.20;100.00
74370;BME280;71062;44.520;11.342;2023-11-21T11:15:11;100330.63;;;9.79;100.00
74370;BME280;71062;44.520;11.342;2023-11-21T11:17:38;100393.41;;;10.13;100.00
74370;BME280;71062;44.520;11.342;2023-11-21T11:20:06;100398.19;;;10.02;100.00
74370;BME280;71062;44.520;11.342;2023-11-21T11:22:42;100391.50;;;9.88;100.00
74370;BME280;71062;44.520;11.342;2023-11-21T11:33:31;100386.44;;;9.85;100.00
74370;BME280;71062;44.520;11.342;2023-11-21T11:36:06;100389.81;;;9.87;100.00
74370;BME280;71062;44.520;11.342;2023-11-21T11:38:34;100389.81;;;9.87;100.00
74370;BME280;71062;44.520;11.342;2023-11-21T11:41:04;100386.16;;;9.92;100.00
74370;BME280;71062;44.520;11.342;2023-11-21T11:43:31;100380.81;;;9.90;100.00
74370;BME280;71062;44.520;11.342;2023-11-21T11:45:58;100382.53;;;9.86;100.00
74370;BME280;71062;44.520;11.342;2023-11-21T11:48:28;100373.28;;;9.81;100.00
74370;BME280;71062;44.520;11.342;2023-11-21T11:51:05;100375.84;;;9.72;100.00
74370;BME280;71062;44.520;11.342;2023-11-21T11:53:48;100382.53;;;9.86;100.00
74370;BME280;71062;44.520;11.342;2023-11-21T11:56:33;100381.13;;;9.79;100.00
74370;BME280;71062;44.520;11.342;2023-11-21T11:59:03;100374.72;;;9.63;100.00
74370;BME280;71062;44.520;11.342;2023-11-21T12:01:34;100376.94;;;9.76;100.00
74370;BME280;71062;44.520;11.342;2023-11-21T12:07:01;100374.72;;;9.68;100.00
74370;BME280;71062;44.520;11.342;2023-11-21T12:09:31;100361.22;;;9.75;100.00
74370;BME280;71062;44.520;11.342;2023-11-21T12:11:57;100365.44;;;9.83;100.00
74370;BME280;71062;44.520;11.342;2023-11-21T12:14:22;100360.09;;;9.76;100.00
74370;BME280;71062;44.520;11.342;2023-11-21T12:16:49;100356.75;;;9.74;100.00
74370;BME280;71062;44.520;11.342;2023-11-21T12:19:14;100348.31;;;9.79;100.00
74370;BME280;71062;44.520;11.342;2023-11-21T12:21:40;100337.94;;;9.75;100.00
74370;BME280;71062;44.520;11.342;2023-11-21T12:24:14;100346.59;;;9.83;100.00
74370;BME280;71062;44.520;11.342;2023-11-21T12:26:40;100348.22;;;10.09;100.00
74370;BME280;71062;44.520;11.342;2023-11-21T12:29:05;100357.19;;;10.22;100.00
74370;BME280;71062;44.520;11.342;2023-11-21T12:31:33;100353.28;;;10.13;100.00
74370;BME280;71062;44.520;11.342;2023-11-21T12:34:03;100349.94;;;10.00;100.00
74370;BME280;71062;44.520;11.342;2023-11-21T12:36:29;100363.13;;;10.00;100.00
74370;BME280;71062;44.520;11.342;2023-11-21T12:38:55;100357.22;;;9.96;100.00
74370;BME280;71062;44.520;11.342;2023-11-21T12:41:21;100369.00;;;10.03;100.00
74370;BME280;71062;44.520;11.342;2023-11-21T12:43:47;100363.41;;;9.98;100.00
74370;BME280;71062;44.520;11.342;2023-11-21T12:46:13;100345.19;;;9.86;100.00
74370;BME280;71062;44.520;11.342;2023-11-21T12:48:44;100359.53;;;9.79;100.00